createdAt,value
2023-06-25T00:02:06.895Z,97732.30
2023-06-25T00:04:35.064Z,97741.06
2023-06-25T00:07:03.060Z,97741.96
2023-06-25T00:09:31.242Z,97749.88
2023-06-25T00:11:59.483Z,97753.74
2023-06-25T00:14:28.051Z,97754.41
2023-06-25T00:16:59.145Z,97751.48
2023-06-25T00:19:28.324Z,97752.99
2023-06-25T00:21:56.569Z,97751.09
2023-06-25T00:24:24.656Z,97749.76
2023-06-25T00:26:52.835Z,97752.40
2023-06-25T00:29:22.150Z,97755.45
2023-06-25T00:31:50.197Z,97758.25
2023-06-25T00:34:20.589Z,97756.95
2023-06-25T00:36:53.039Z,97752.91
2023-06-25T00:39:21.565Z,97754.52
2023-06-25T00:41:50.192Z,97749.24
2023-06-25T00:44:18.206Z,97743.25
2023-06-25T00:46:46.173Z,97747.41
2023-06-25T00:49:14.783Z,97751.14
2023-06-25T00:51:43.685Z,97754.80
2023-06-25T00:54:12.182Z,97758.20
2023-06-25T00:56:40.343Z,97759.05
2023-06-25T00:59:08.520Z,97763.79
2023-06-25T01:01:49.945Z,97767.60
2023-06-25T01:04:24.849Z,97761.77
2023-06-25T01:06:57.215Z,97757.52
2023-06-25T01:09:26.410Z,97756.48
2023-06-25T01:12:02.468Z,97754.89
2023-06-25T01:14:30.495Z,97755.23
2023-06-25T01:16:58.808Z,97757.23
2023-06-25T01:19:32.866Z,97755.63
2023-06-25T01:22:03.895Z,97755.27
2023-06-25T01:24:35.794Z,97753.14
2023-06-25T01:27:05.666Z,97743.06
2023-06-25T01:29:36.707Z,97742.91
2023-06-25T01:32:08.259Z,97745.30
2023-06-25T01:34:36.699Z,97742.76
2023-06-25T01:37:07.755Z,97742.77
2023-06-25T01:39:35.985Z,97746.84
2023-06-25T01:42:04.744Z,97749.14
2023-06-25T01:44:33.709Z,97741.84
2023-06-25T01:47:02.197Z,97738.22
2023-06-25T01:49:33.061Z,97739.59
2023-06-25T01:52:02.639Z,97733.85
2023-06-25T01:54:30.662Z,97725.48
2023-06-25T01:56:58.701Z,97723.15
2023-06-25T01:59:27.057Z,97725.29
2023-06-25T02:01:56.170Z,97723.13
2023-06-25T02:04:26.188Z,97728.23
2023-06-25T02:06:54.877Z,97728.92
2023-06-25T02:09:23.645Z,97727.16
2023-06-25T02:11:51.735Z,97726.61
2023-06-25T02:14:19.784Z,97721.83
2023-06-25T02:16:47.873Z,97723.57
2023-06-25T02:19:16.609Z,97723.70
2023-06-25T02:21:44.926Z,97717.35
2023-06-25T02:24:12.990Z,97712.42
2023-06-25T02:26:43.024Z,97710.23
2023-06-25T02:29:11.029Z,97710.85
2023-06-25T02:31:39.190Z,97710.34
2023-06-25T02:34:07.388Z,97711.04
2023-06-25T02:36:35.654Z,97709.89
2023-06-25T02:39:04.298Z,97704.63
2023-06-25T02:41:32.263Z,97702.02
2023-06-25T02:44:00.575Z,97706.81
2023-06-25T02:46:29.081Z,97710.08
2023-06-25T02:48:58.138Z,97711.60
2023-06-25T02:51:26.300Z,97716.17
2023-06-25T02:53:54.461Z,97723.88
2023-06-25T02:56:22.380Z,97728.69
2023-06-25T02:58:50.365Z,97728.98
2023-06-25T03:01:19.244Z,97729.32
2023-06-25T03:03:48.043Z,97724.83
2023-06-25T03:06:15.997Z,97725.98
2023-06-25T03:08:44.158Z,97732.02
2023-06-25T03:11:12.311Z,97730.42
2023-06-25T03:13:40.436Z,97732.88
2023-06-25T03:16:08.574Z,97733.63
2023-06-25T03:18:36.670Z,97734.67
2023-06-25T03:21:04.699Z,97735.23
2023-06-25T03:23:34.303Z,97729.75
2023-06-25T03:26:02.686Z,97731.88
2023-06-25T03:28:31.155Z,97729.74
2023-06-25T03:30:59.245Z,97725.64
2023-06-25T03:33:28.320Z,97727.58
2023-06-25T03:35:58.339Z,97734.33
2023-06-25T03:38:26.821Z,97741.35
2023-06-25T03:40:55.092Z,97742.13
2023-06-25T03:43:23.031Z,97737.98
2023-06-25T03:45:51.772Z,97732.98
2023-06-25T03:48:20.228Z,97730.67
2023-06-25T03:50:48.772Z,97732.40
2023-06-25T03:53:19.109Z,97730.91
2023-06-25T03:55:47.547Z,97729.67
2023-06-25T03:58:15.540Z,97729.99
2023-06-25T04:00:43.878Z,97734.92
2023-06-25T04:03:12.694Z,97735.14
2023-06-25T04:05:41.194Z,97738.02
2023-06-25T04:08:09.340Z,97741.56
2023-06-25T04:10:39.155Z,97742.84
2023-06-25T04:13:07.520Z,97739.89
2023-06-25T04:15:36.218Z,97747.71
2023-06-25T04:18:04.433Z,97744.17
2023-06-25T04:20:32.967Z,97742.80
2023-06-25T04:23:01.402Z,97739.03
2023-06-25T04:25:30.115Z,97734.67
2023-06-25T04:27:58.915Z,97733.05
2023-06-25T04:30:27.115Z,97736.15
2023-06-25T04:32:56.311Z,97732.81
2023-06-25T04:35:24.615Z,97731.70
2023-06-25T04:37:53.075Z,97732.93
2023-06-25T04:40:21.118Z,97734.65
2023-06-25T04:42:49.413Z,97736.79
2023-06-25T04:45:17.912Z,97741.92
2023-06-25T04:47:46.220Z,97741.59
2023-06-25T04:50:14.725Z,97740.41
2023-06-25T04:52:42.916Z,97729.27
2023-06-25T04:55:11.289Z,97726.04
2023-06-25T04:57:40.333Z,97726.92
2023-06-25T05:00:09.644Z,97728.17
2023-06-25T05:02:37.680Z,97728.25
2023-06-25T05:05:06.590Z,97726.17
2023-06-25T05:07:34.815Z,97725.21
2023-06-25T05:10:02.983Z,97722.03
2023-06-25T05:12:30.876Z,97718.55
2023-06-25T05:14:59.130Z,97712.14
2023-06-25T05:17:27.302Z,97711.20
2023-06-25T05:19:55.313Z,97712.61
2023-06-25T05:22:23.549Z,97718.65
2023-06-25T05:24:51.550Z,97719.64
2023-06-25T05:27:19.891Z,97716.08
2023-06-25T05:29:47.990Z,97712.21
2023-06-25T05:32:17.983Z,97711.43
2023-06-25T05:34:46.159Z,97710.49
2023-06-25T05:37:14.221Z,97709.79
2023-06-25T05:39:42.303Z,97708.85
2023-06-25T05:42:10.483Z,97705.36
2023-06-25T05:44:38.655Z,97706.93
2023-06-25T05:47:07.004Z,97707.96
2023-06-25T05:49:35.216Z,97711.06
2023-06-25T05:52:03.270Z,97715.17
2023-06-25T05:54:31.251Z,97716.54
2023-06-25T05:56:59.249Z,97712.54
2023-06-25T05:59:27.366Z,97712.02
2023-06-25T06:01:55.559Z,97713.50
2023-06-25T06:04:23.565Z,97712.73
2023-06-25T06:06:51.499Z,97709.63
2023-06-25T06:09:19.897Z,97707.55
2023-06-25T06:11:47.861Z,97709.36
2023-06-25T06:14:15.876Z,97705.96
2023-06-25T06:16:43.979Z,97702.45
2023-06-25T06:19:12.067Z,97702.24
2023-06-25T06:21:40.248Z,97700.65
2023-06-25T06:24:08.504Z,97696.10
2023-06-25T06:26:36.994Z,97691.94
2023-06-25T06:29:05.487Z,97692.74
2023-06-25T06:31:33.866Z,97692.73
2023-06-25T06:34:02.062Z,97694.48
2023-06-25T06:36:30.128Z,97693.58
2023-06-25T06:38:58.066Z,97691.11
2023-06-25T06:41:26.016Z,97685.95
2023-06-25T06:43:54.115Z,97690.96
2023-06-25T06:46:22.291Z,97696.69
2023-06-25T06:48:50.291Z,97705.86
2023-06-25T06:51:18.230Z,97708.98
2023-06-25T06:53:46.158Z,97705.13
2023-06-25T06:56:14.297Z,97699.19
2023-06-25T06:58:42.540Z,97694.46
2023-06-25T07:01:10.551Z,97684.54
2023-06-25T07:03:38.689Z,97686.09
2023-06-25T07:06:07.071Z,97680.81
2023-06-25T07:08:35.020Z,97676.05
2023-06-25T07:11:03.562Z,97673.68
2023-06-25T07:13:33.193Z,97671.00
2023-06-25T07:16:01.193Z,97667.63
2023-06-25T07:18:29.112Z,97670.15
2023-06-25T07:20:57.981Z,97671.75
2023-06-25T07:23:26.637Z,97672.98
2023-06-25T07:25:55.230Z,97673.48
2023-06-25T07:28:23.246Z,97674.42
2023-06-25T07:30:51.278Z,97670.66
2023-06-25T07:33:19.465Z,97661.21
2023-06-25T07:35:47.719Z,97660.58
2023-06-25T07:38:16.097Z,97658.79
2023-06-25T07:40:44.180Z,97660.34
2023-06-25T07:43:12.625Z,97660.83
2023-06-25T07:45:41.409Z,97659.27
2023-06-25T07:48:09.743Z,97651.70
2023-06-25T07:50:37.909Z,97651.16
2023-06-25T07:53:05.887Z,97650.27
2023-06-25T07:55:56.191Z,97646.13
2023-06-25T07:58:29.958Z,97646.73
2023-06-25T08:00:58.035Z,97643.55
2023-06-25T08:03:26.804Z,97641.93
2023-06-25T08:05:54.941Z,97637.02
2023-06-25T08:08:23.063Z,97638.62
2023-06-25T08:10:53.000Z,97640.24
2023-06-25T08:13:22.051Z,97635.81
2023-06-25T08:18:51.201Z,97630.77
2023-06-25T08:21:19.227Z,97628.29
2023-06-25T08:23:47.343Z,97625.47
2023-06-25T08:26:17.195Z,97624.06
2023-06-25T08:28:45.409Z,97620.55
2023-06-25T08:31:13.697Z,97620.78
2023-06-25T08:33:41.883Z,97617.42
2023-06-25T08:36:10.119Z,97616.15
2023-06-25T08:38:38.321Z,97611.70
2023-06-25T08:41:06.511Z,97610.17
2023-06-25T08:43:35.036Z,97606.23
2023-06-25T08:46:03.919Z,97598.86
2023-06-25T08:48:35.019Z,97597.12
2023-06-25T08:51:08.411Z,97593.58
2023-06-25T08:53:37.324Z,97587.27
2023-06-25T08:56:06.670Z,97585.30
2023-06-25T08:58:36.716Z,97585.45
2023-06-25T09:01:05.221Z,97579.20
2023-06-25T09:03:33.284Z,97579.16
2023-06-25T09:06:01.541Z,97577.87
2023-06-25T09:08:29.723Z,97574.38
2023-06-25T09:10:58.235Z,97573.70
2023-06-25T09:13:28.285Z,97569.16
2023-06-25T09:16:04.508Z,97570.55
2023-06-25T09:18:32.674Z,97571.49
2023-06-25T09:21:05.437Z,97571.03
2023-06-25T09:23:34.222Z,97574.55
2023-06-25T09:26:14.327Z,97569.47
2023-06-25T09:29:00.868Z,97567.51
2023-06-25T09:31:34.069Z,97560.89
2023-06-25T09:34:05.418Z,97559.09
2023-06-25T09:36:39.134Z,97555.79
2023-06-25T09:39:09.628Z,97546.67
2023-06-25T09:41:41.790Z,97535.77
2023-06-25T09:44:11.068Z,97533.39
2023-06-25T09:46:41.604Z,97526.94
2023-06-25T09:49:10.143Z,97521.50
2023-06-25T09:51:52.484Z,97518.69
2023-06-25T09:54:23.445Z,97521.89
2023-06-25T09:56:52.703Z,97520.30
2023-06-25T09:59:22.612Z,97513.16
2023-06-25T10:01:54.024Z,97508.09
2023-06-25T10:04:23.283Z,97508.69
2023-06-25T10:06:52.161Z,97509.26
2023-06-25T10:09:20.401Z,97507.05
2023-06-25T10:11:52.950Z,97505.60
2023-06-25T10:14:21.048Z,97495.58
2023-06-25T10:16:57.527Z,97486.33
2023-06-25T10:19:27.827Z,97477.52
2023-06-25T10:22:05.471Z,97470.91
2023-06-25T10:24:44.694Z,97478.46
2023-06-25T10:27:22.428Z,97492.75
2023-06-25T10:29:51.126Z,97505.32
2023-06-25T10:32:23.491Z,97514.45
2023-06-25T10:35:01.420Z,97523.69
2023-06-25T10:37:34.587Z,97532.20
2023-06-25T10:40:08.754Z,97543.92
2023-06-25T10:42:38.291Z,97556.29
2023-06-25T10:45:08.170Z,97568.76
2023-06-25T10:47:36.594Z,97596.04
2023-06-25T10:50:05.232Z,97615.34
2023-06-25T10:52:33.226Z,97619.09
2023-06-25T10:55:03.258Z,97612.15
2023-06-25T10:57:33.290Z,97600.66
2023-06-25T11:00:01.960Z,97589.48
2023-06-25T11:02:30.983Z,97588.93
2023-06-25T11:05:04.119Z,97588.48
2023-06-25T11:07:33.210Z,97592.16
2023-06-25T11:10:02.260Z,97592.73
2023-06-25T11:12:31.937Z,97593.48
2023-06-25T11:15:00.846Z,97592.14
2023-06-25T11:17:29.618Z,97590.06
2023-06-25T11:19:59.417Z,97588.70
2023-06-25T11:22:28.083Z,97581.20
2023-06-25T11:24:58.180Z,97568.45
2023-06-25T11:27:28.255Z,97566.60
2023-06-25T11:29:56.506Z,97563.25
2023-06-25T11:32:27.870Z,97555.69
2023-06-25T11:34:58.722Z,97554.84
2023-06-25T11:37:29.236Z,97554.23
2023-06-25T11:39:57.932Z,97565.15
2023-06-25T11:42:26.741Z,97574.41
2023-06-25T11:45:08.875Z,97582.50
2023-06-25T11:47:37.030Z,97578.73
2023-06-25T11:50:05.628Z,97571.98
2023-06-25T11:52:35.156Z,97567.36
2023-06-25T11:55:03.995Z,97565.10
2023-06-25T11:57:32.416Z,97566.84
2023-06-25T12:00:00.588Z,97565.48
2023-06-25T12:02:44.501Z,97557.80
2023-06-25T12:05:17.785Z,97554.66
2023-06-25T12:07:46.205Z,97556.71
2023-06-25T12:10:14.593Z,97554.54
2023-06-25T12:12:42.653Z,97548.95
2023-06-25T12:15:10.595Z,97539.78
2023-06-25T12:17:38.611Z,97533.20
2023-06-25T12:20:07.437Z,97531.05
2023-06-25T12:22:35.760Z,97531.02
2023-06-25T12:25:05.439Z,97534.00
2023-06-25T12:27:33.430Z,97527.52
2023-06-25T12:30:01.836Z,97526.73
2023-06-25T12:32:29.897Z,97524.98
2023-06-25T12:34:57.912Z,97522.85
2023-06-25T12:37:25.891Z,97521.27
2023-06-25T12:39:54.219Z,97513.94
2023-06-25T12:42:22.310Z,97513.44
2023-06-25T12:44:50.310Z,97509.55
2023-06-25T12:47:18.463Z,97509.39
2023-06-25T12:49:46.703Z,97505.58
2023-06-25T12:52:14.884Z,97499.23
2023-06-25T12:54:44.528Z,97500.86
2023-06-25T12:57:12.631Z,97501.94
2023-06-25T12:59:40.666Z,97505.58
2023-06-25T13:02:08.948Z,97516.87
2023-06-25T13:04:37.186Z,97529.89
2023-06-25T13:07:05.336Z,97538.84
2023-06-25T13:09:34.141Z,97547.23
2023-06-25T13:12:02.231Z,97551.55
2023-06-25T13:14:30.215Z,97555.40
2023-06-25T13:16:58.146Z,97570.84
2023-06-25T13:19:26.432Z,97576.59
2023-06-25T13:21:54.612Z,97580.60
2023-06-25T13:24:22.986Z,97585.29
2023-06-25T13:26:52.647Z,97589.36
2023-06-25T13:29:20.972Z,97595.45
2023-06-25T13:31:50.785Z,97601.16
2023-06-25T13:34:19.165Z,97605.75
2023-06-25T13:36:48.355Z,97604.78
2023-06-25T13:39:16.554Z,97607.70
2023-06-25T13:41:44.871Z,97611.42
2023-06-25T13:44:12.813Z,97610.82
2023-06-25T13:46:41.222Z,97611.73
2023-06-25T13:49:10.359Z,97608.35
2023-06-25T13:51:38.322Z,97610.59
2023-06-25T13:54:06.510Z,97608.81
2023-06-25T13:56:34.608Z,97607.42
2023-06-25T13:59:02.787Z,97602.09
2023-06-25T14:01:30.762Z,97592.45
2023-06-25T14:03:58.819Z,97587.14
2023-06-25T14:06:27.383Z,97585.23
2023-06-25T14:08:56.682Z,97585.84
2023-06-25T14:11:26.283Z,97584.83
2023-06-25T14:13:54.569Z,97584.23
2023-06-25T14:16:22.720Z,97581.73
2023-06-25T14:18:50.859Z,97575.67
2023-06-25T14:21:20.199Z,97568.40
2023-06-25T14:23:49.827Z,97566.05
2023-06-25T14:26:17.920Z,97565.08
2023-06-25T14:28:47.274Z,97566.66
2023-06-25T14:31:16.940Z,97571.33
2023-06-25T14:33:44.902Z,97574.30
2023-06-25T14:36:12.934Z,97571.52
2023-06-25T14:38:42.846Z,97570.30
2023-06-25T14:41:10.831Z,97575.40
2023-06-25T14:43:39.201Z,97576.39
2023-06-25T14:46:07.382Z,97570.48
2023-06-25T14:48:35.723Z,97567.20
2023-06-25T14:51:04.044Z,97565.48
2023-06-25T14:53:32.405Z,97565.23
2023-06-25T14:56:01.201Z,97565.35
2023-06-25T14:58:29.880Z,97567.25
2023-06-25T15:00:58.054Z,97567.46
2023-06-25T15:03:28.872Z,97563.68
2023-06-25T15:06:10.119Z,97560.72
2023-06-25T15:08:39.979Z,97555.30
2023-06-25T15:11:08.162Z,97551.67
2023-06-25T15:13:37.214Z,97554.06
2023-06-25T15:16:05.933Z,97555.69
2023-06-25T15:18:34.007Z,97550.73
2023-06-25T15:21:01.987Z,97548.11
2023-06-25T15:23:30.480Z,97547.96
2023-06-25T15:25:58.444Z,97546.63
2023-06-25T15:32:09.723Z,97545.73
2023-06-25T15:34:37.760Z,97538.93
2023-06-25T15:37:05.783Z,97528.02
2023-06-25T15:39:33.799Z,97527.43
2023-06-25T15:42:02.238Z,97535.81
2023-06-25T15:44:30.486Z,97539.16
2023-06-25T15:46:58.765Z,97544.14
2023-06-25T15:49:26.945Z,97540.80
2023-06-25T15:51:55.121Z,97538.10
2023-06-25T15:54:25.987Z,97532.56
2023-06-25T15:56:54.761Z,97523.48
2023-06-25T15:59:22.994Z,97513.59
2023-06-25T16:01:51.256Z,97508.16
2023-06-25T16:04:19.281Z,97502.66
2023-06-25T16:06:47.425Z,97500.44
2023-06-25T16:09:15.539Z,97496.34
2023-06-25T16:11:43.558Z,97489.54
2023-06-25T16:14:11.476Z,97485.29
2023-06-25T16:16:39.628Z,97489.20
2023-06-25T16:19:39.455Z,97495.41
2023-06-25T16:21:55.628Z,97504.84
2023-06-25T16:24:23.834Z,97510.92
2023-06-25T16:26:51.891Z,97511.77
2023-06-25T16:29:21.510Z,97513.70
2023-06-25T16:31:49.984Z,97517.79
2023-06-25T16:34:18.047Z,97522.92
2023-06-25T16:36:46.139Z,97538.95
2023-06-25T16:39:14.491Z,97546.70
2023-06-25T16:41:42.716Z,97555.89
2023-06-25T16:44:10.833Z,97558.54
2023-06-25T16:46:38.975Z,97552.14
2023-06-25T16:49:07.902Z,97554.48
2023-06-25T16:51:35.992Z,97555.83
2023-06-25T16:54:06.969Z,97549.58
2023-06-25T16:56:35.271Z,97534.09
2023-06-25T16:59:04.134Z,97527.08
2023-06-25T17:01:32.628Z,97526.65
2023-06-25T17:04:00.776Z,97529.82
2023-06-25T17:06:29.012Z,97526.84
2023-06-25T17:08:57.104Z,97526.70
2023-06-25T17:11:27.638Z,97525.08
2023-06-25T17:13:55.808Z,97524.65
2023-06-25T17:16:24.391Z,97526.13
2023-06-25T17:18:52.398Z,97528.80
2023-06-25T17:21:20.561Z,97531.94
2023-06-25T17:23:48.902Z,97529.88
2023-06-25T17:26:17.280Z,97526.09
2023-06-25T17:28:45.295Z,97524.31
2023-06-25T17:31:13.283Z,97522.65
2023-06-25T17:33:41.393Z,97529.02
2023-06-25T17:36:09.659Z,97529.29
2023-06-25T17:38:37.950Z,97532.50
2023-06-25T17:41:06.005Z,97532.10
2023-06-25T17:43:34.190Z,97525.67
2023-06-25T17:46:02.172Z,97518.40
2023-06-25T17:48:30.428Z,97514.20
2023-06-25T17:51:01.001Z,97512.72
2023-06-25T17:53:31.391Z,97516.05
2023-06-25T17:56:00.576Z,97516.23
2023-06-25T17:58:29.718Z,97508.53
2023-06-25T18:00:57.879Z,97503.29
2023-06-25T18:03:26.393Z,97506.16
2023-06-25T18:05:54.754Z,97511.16
2023-06-25T18:08:22.872Z,97513.70
2023-06-25T18:10:54.033Z,97510.76
2023-06-25T18:13:22.632Z,97504.83
2023-06-25T18:15:50.706Z,97507.99
2023-06-25T18:18:22.688Z,97517.91
2023-06-25T18:20:51.139Z,97526.83
2023-06-25T18:23:19.513Z,97525.09
2023-06-25T18:25:47.698Z,97523.41
2023-06-25T18:28:15.771Z,97515.58
2023-06-25T18:30:43.897Z,97515.15
2023-06-25T18:33:13.894Z,97514.98
2023-06-25T18:35:42.466Z,97511.45
2023-06-25T18:38:11.930Z,97510.33
2023-06-25T18:40:40.151Z,97521.15
2023-06-25T18:43:08.390Z,97532.44
2023-06-25T18:45:36.659Z,97539.75
2023-06-25T18:48:05.276Z,97546.17
2023-06-25T18:50:33.296Z,97549.80
2023-06-25T18:53:01.606Z,97549.90
2023-06-25T18:55:29.596Z,97550.72
2023-06-25T18:57:57.850Z,97550.17
2023-06-25T19:00:26.229Z,97546.77
2023-06-25T19:02:54.621Z,97545.80
2023-06-25T19:05:23.089Z,97541.88
2023-06-25T19:07:51.271Z,97548.56
2023-06-25T19:10:19.487Z,97555.84
2023-06-25T19:12:47.810Z,97558.98
2023-06-25T19:15:17.589Z,97556.36
2023-06-25T19:17:45.783Z,97552.29
2023-06-25T19:20:14.003Z,97549.33
2023-06-25T19:22:56.474Z,97554.84
2023-06-25T19:25:25.089Z,97561.62
2023-06-25T19:27:55.391Z,97559.94
2023-06-25T19:30:23.561Z,97560.98
2023-06-25T19:32:52.875Z,97557.13
2023-06-25T19:35:21.494Z,97552.40
2023-06-25T19:37:50.548Z,97547.77
2023-06-25T19:40:18.588Z,97549.46
2023-06-25T19:42:48.617Z,97547.23
2023-06-25T19:45:17.761Z,97541.77
2023-06-25T19:47:46.080Z,97541.59
2023-06-25T19:50:14.486Z,97536.89
2023-06-25T19:52:42.483Z,97535.07
2023-06-25T19:55:10.557Z,97536.67
2023-06-25T19:57:39.213Z,97540.98
2023-06-25T20:00:07.914Z,97543.66
2023-06-25T20:02:42.874Z,97543.39
2023-06-25T20:05:11.736Z,97545.41
2023-06-25T20:07:39.933Z,97539.23
2023-06-25T20:10:08.678Z,97536.39
2023-06-25T20:12:36.733Z,97534.19
2023-06-25T20:15:05.249Z,97533.05
2023-06-25T20:17:33.440Z,97537.89
2023-06-25T20:20:01.790Z,97545.05
2023-06-25T20:22:29.989Z,97551.75
2023-06-25T20:24:58.351Z,97556.50
2023-06-25T20:27:26.622Z,97557.72
2023-06-25T20:29:54.600Z,97561.81
2023-06-25T20:32:22.612Z,97566.05
2023-06-25T20:34:50.727Z,97569.54
2023-06-25T20:37:18.916Z,97570.86
2023-06-25T20:39:46.924Z,97571.40
2023-06-25T20:42:15.279Z,97575.94
2023-06-25T20:44:43.735Z,97575.25
2023-06-25T20:47:14.513Z,97572.04
2023-06-25T20:49:42.791Z,97571.68
2023-06-25T20:52:10.908Z,97570.92
2023-06-25T20:54:39.201Z,97566.91
2023-06-25T20:57:07.478Z,97565.97
2023-06-25T20:59:35.754Z,97562.84
2023-06-25T21:02:04.050Z,97562.09
2023-06-25T21:04:32.097Z,97562.43
2023-06-25T21:07:00.342Z,97560.84
2023-06-25T21:09:28.590Z,97562.17
2023-06-25T21:11:56.729Z,97561.54
2023-06-25T21:14:24.712Z,97558.32
2023-06-25T21:16:52.760Z,97557.98
2023-06-25T21:19:20.841Z,97560.52
2023-06-25T21:21:49.027Z,97565.83
2023-06-25T21:24:16.986Z,97570.27
2023-06-25T21:26:45.148Z,97569.70
2023-06-25T21:29:13.078Z,97564.67
2023-06-25T21:31:41.203Z,97566.29
2023-06-25T21:34:09.230Z,97566.45
2023-06-25T21:36:37.264Z,97564.85
2023-06-25T21:39:07.996Z,97566.08
2023-06-25T21:41:36.558Z,97565.36
2023-06-25T21:44:04.779Z,97562.40
2023-06-25T21:46:33.147Z,97561.31
2023-06-25T21:49:01.386Z,97562.63
2023-06-25T21:51:29.486Z,97563.18
2023-06-25T21:53:57.647Z,97558.71
2023-06-25T21:56:25.802Z,97558.41
2023-06-25T21:58:53.883Z,97556.78
2023-06-25T22:01:22.281Z,97559.33
2023-06-25T22:03:50.537Z,97560.26
2023-06-25T22:06:19.025Z,97557.75
2023-06-25T22:08:47.086Z,97562.66
2023-06-25T22:11:15.368Z,97561.45
2023-06-25T22:13:44.050Z,97560.05
2023-06-25T22:16:12.018Z,97558.73
2023-06-25T22:18:40.045Z,97558.36
2023-06-25T22:21:09.300Z,97550.81
2023-06-25T22:23:38.627Z,97552.09
2023-06-25T22:26:06.578Z,97550.21
2023-06-25T22:28:34.573Z,97550.04
2023-06-25T22:31:02.616Z,97549.55
2023-06-25T22:33:30.794Z,97553.31
2023-06-25T22:35:58.946Z,97554.45
2023-06-25T22:38:27.220Z,97555.25
2023-06-25T22:40:56.113Z,97558.42
2023-06-25T22:43:24.121Z,97559.59
2023-06-25T22:45:52.283Z,97563.83
2023-06-25T22:48:20.335Z,97562.11
2023-06-25T22:50:48.819Z,97563.95
2023-06-25T22:53:16.990Z,97571.85
2023-06-25T22:55:44.971Z,97571.45
2023-06-25T22:58:13.863Z,97568.21
2023-06-25T23:00:42.632Z,97567.49
2023-06-25T23:03:10.900Z,97565.61
2023-06-25T23:05:39.529Z,97565.11
2023-06-25T23:08:07.719Z,97565.77
2023-06-25T23:10:35.808Z,97566.63
2023-06-25T23:13:03.995Z,97568.08
2023-06-25T23:15:31.971Z,97569.02
2023-06-25T23:18:00.278Z,97563.27
2023-06-25T23:20:28.259Z,97561.16
2023-06-25T23:22:56.261Z,97559.91
2023-06-25T23:25:29.250Z,97559.42
2023-06-25T23:27:58.753Z,97557.95
2023-06-25T23:30:27.510Z,97553.92
2023-06-25T23:32:56.134Z,97545.57
2023-06-25T23:35:24.453Z,97546.42
2023-06-25T23:37:52.640Z,97545.15
2023-06-25T23:40:20.904Z,97543.88
2023-06-25T23:42:49.069Z,97542.94
2023-06-25T23:45:18.005Z,97543.23
2023-06-25T23:47:46.693Z,97544.02
2023-06-25T23:50:15.301Z,97543.58
2023-06-25T23:52:43.921Z,97542.08
2023-06-25T23:55:12.199Z,97545.16
2023-06-25T23:57:40.153Z,97547.48
